sensor_id;sensor_type;location;lat;lon;timestamp;pressure;altitude;pressure_sealevel;temperature;humidity
51603;BME280;37954;51.980;5.850;2022-10-26T00:03:35;101119.38;;;11.63;87.07
51603;BME280;37954;51.980;5.850;2022-10-26T00:07:48;101123.69;;;11.64;86.81
51603;BME280;37954;51.980;5.850;2022-10-26T00:12:00;101118.31;;;11.64;87.08
51603;BME280;37954;51.980;5.850;2022-10-26T00:16:18;101112.94;;;11.64;86.99
51603;BME280;37954;51.980;5.850;2022-10-26T00:20:31;101111.25;;;11.69;87.10
51603;BME280;37954;51.980;5.850;2022-10-26T00:24:42;101097.41;;;11.66;87.05
51603;BME280;37954;51.980;5.850;2022-10-26T00:28:54;101094.72;;;11.66;87.15
51603;BME280;37954;51.980;5.850;2022-10-26T00:33:11;101097.19;;;11.67;87.16
51603;BME280;37954;51.980;5.850;2022-10-26T00:37:23;101096.97;;;11.69;87.41
51603;BME280;37954;51.980;5.850;2022-10-26T00:41:36;101091.78;;;11.67;87.06
51603;BME280;37954;51.980;5.850;2022-10-26T00:45:49;101091.38;;;11.70;87.48
51603;BME280;37954;51.980;5.850;2022-10-26T00:50:21;101082.06;;;11.66;87.34
51603;BME280;37954;51.980;5.850;2022-10-26T00:54:35;101088.88;;;11.69;87.49
51603;BME280;37954;51.980;5.850;2022-10-26T00:58:47;101092.78;;;11.73;87.21
51603;BME280;37954;51.980;5.850;2022-10-26T01:03:00;101087.00;;;11.76;87.80
51603;BME280;37954;51.980;5.850;2022-10-26T01:07:14;101083.84;;;11.79;87.55
51603;BME280;37954;51.980;5.850;2022-10-26T01:11:26;101080.72;;;11.82;87.50
51603;BME280;37954;51.980;5.850;2022-10-26T01:25:03;101058.91;;;11.90;87.70
51603;BME280;37954;51.980;5.850;2022-10-26T01:29:58;101053.28;;;11.92;87.60
51603;BME280;37954;51.980;5.850;2022-10-26T01:38:56;101046.84;;;11.93;87.86
51603;BME280;37954;51.980;5.850;2022-10-26T01:43:12;101037.97;;;11.92;87.92
51603;BME280;37954;51.980;5.850;2022-10-26T01:47:26;101020.16;;;11.91;87.82
51603;BME280;37954;51.980;5.850;2022-10-26T01:51:40;101015.81;;;11.90;87.84
51603;BME280;37954;51.980;5.850;2022-10-26T01:55:54;101021.19;;;11.90;87.71
51603;BME280;37954;51.980;5.850;2022-10-26T02:00:08;101031.38;;;11.88;87.67
51603;BME280;37954;51.980;5.850;2022-10-26T02:08:59;101035.16;;;11.80;87.95
51603;BME280;37954;51.980;5.850;2022-10-26T02:13:51;101030.47;;;11.76;87.75
51603;BME280;37954;51.980;5.850;2022-10-26T02:18:22;101018.69;;;11.70;87.76
51603;BME280;37954;51.980;5.850;2022-10-26T02:22:43;101020.72;;;11.75;87.62
51603;BME280;37954;51.980;5.850;2022-10-26T02:26:56;101010.59;;;11.77;87.98
51603;BME280;37954;51.980;5.850;2022-10-26T02:31:11;101014.91;;;11.78;88.08
51603;BME280;37954;51.980;5.850;2022-10-26T02:35:29;101016.09;;;11.82;88.00
51603;BME280;37954;51.980;5.850;2022-10-26T02:39:43;101000.19;;;11.80;88.15
51603;BME280;37954;51.980;5.850;2022-10-26T02:44:12;100995.78;;;11.86;88.36
51603;BME280;37954;51.980;5.850;2022-10-26T02:48:25;100987.47;;;11.88;88.29
51603;BME280;37954;51.980;5.850;2022-10-26T02:56:58;100974.78;;;11.95;88.47
51603;BME280;37954;51.980;5.850;2022-10-26T03:01:12;100984.63;;;12.01;88.34
51603;BME280;37954;51.980;5.850;2022-10-26T03:05:26;100984.16;;;12.04;88.23
51603;BME280;37954;51.980;5.850;2022-10-26T03:09:37;100975.88;;;12.05;88.66
51603;BME280;37954;51.980;5.850;2022-10-26T03:13:49;100979.75;;;12.09;88.45
51603;BME280;37954;51.980;5.850;2022-10-26T03:18:01;100988.44;;;12.11;88.72
51603;BME280;37954;51.980;5.850;2022-10-26T03:22:12;100985.75;;;12.11;88.33
51603;BME280;37954;51.980;5.850;2022-10-26T03:26:24;100985.25;;;12.14;88.50
51603;BME280;37954;51.980;5.850;2022-10-26T03:30:35;100980.25;;;12.18;88.42
51603;BME280;37954;51.980;5.850;2022-10-26T03:34:47;100983.75;;;12.18;88.30
51603;BME280;37954;51.980;5.850;2022-10-26T03:38:59;100982.25;;;12.23;88.36
51603;BME280;37954;51.980;5.850;2022-10-26T03:43:10;100976.50;;;12.19;88.59
51603;BME280;37954;51.980;5.850;2022-10-26T03:47:21;100971.50;;;12.23;88.54
51603;BME280;37954;51.980;5.850;2022-10-26T03:51:33;100959.28;;;12.20;88.36
51603;BME280;37954;51.980;5.850;2022-10-26T03:55:44;100963.84;;;12.19;88.28
51603;BME280;37954;51.980;5.850;2022-10-26T03:59:56;100964.31;;;12.16;88.22
51603;BME280;37954;51.980;5.850;2022-10-26T04:04:07;100962.91;;;12.14;88.37
51603;BME280;37954;51.980;5.850;2022-10-26T04:08:19;100956.34;;;12.10;88.00
51603;BME280;37954;51.980;5.850;2022-10-26T04:12:30;100963.81;;;12.08;88.40
51603;BME280;37954;51.980;5.850;2022-10-26T04:16:42;100958.28;;;12.03;88.46
51603;BME280;37954;51.980;5.850;2022-10-26T04:20:54;100955.22;;;11.99;87.87
51603;BME280;37954;51.980;5.850;2022-10-26T04:25:06;100969.50;;;12.00;87.98
51603;BME280;37954;51.980;5.850;2022-10-26T04:29:17;100953.22;;;11.95;88.50
51603;BME280;37954;51.980;5.850;2022-10-26T04:33:29;100962.69;;;11.97;88.47
51603;BME280;37954;51.980;5.850;2022-10-26T04:37:40;100954.84;;;11.96;88.45
51603;BME280;37954;51.980;5.850;2022-10-26T04:41:53;100959.41;;;11.95;88.27
51603;BME280;37954;51.980;5.850;2022-10-26T04:46:04;100957.53;;;11.96;88.49
51603;BME280;37954;51.980;5.850;2022-10-26T04:50:16;100965.06;;;11.94;88.24
51603;BME280;37954;51.980;5.850;2022-10-26T04:54:28;100955.94;;;11.95;88.59
51603;BME280;37954;51.980;5.850;2022-10-26T04:58:39;100967.03;;;11.98;88.67
51603;BME280;37954;51.980;5.850;2022-10-26T05:02:51;100941.28;;;11.91;89.17
51603;BME280;37954;51.980;5.850;2022-10-26T05:07:02;100955.75;;;12.08;89.08
51603;BME280;37954;51.980;5.850;2022-10-26T05:11:14;100949.09;;;12.10;89.11
51603;BME280;37954;51.980;5.850;2022-10-26T05:15:27;100944.03;;;12.14;89.43
51603;BME280;37954;51.980;5.850;2022-10-26T05:19:38;100950.63;;;12.18;89.31
51603;BME280;37954;51.980;5.850;2022-10-26T05:23:51;100946.19;;;12.24;89.46
51603;BME280;37954;51.980;5.850;2022-10-26T05:28:07;100952.28;;;12.31;89.44
51603;BME280;37954;51.980;5.850;2022-10-26T05:32:19;100952.28;;;12.31;89.40
51603;BME280;37954;51.980;5.850;2022-10-26T05:36:31;100952.44;;;12.36;89.31
51603;BME280;37954;51.980;5.850;2022-10-26T05:40:53;100964.84;;;12.37;89.33
51603;BME280;37954;51.980;5.850;2022-10-26T05:45:05;100959.84;;;12.40;89.16
51603;BME280;37954;51.980;5.850;2022-10-26T05:49:16;100962.31;;;12.42;89.11
51603;BME280;37954;51.980;5.850;2022-10-26T05:53:28;100971.22;;;12.42;89.01
51603;BME280;37954;51.980;5.850;2022-10-26T05:57:40;100968.88;;;12.46;89.04
51603;BME280;37954;51.980;5.850;2022-10-26T06:06:25;100977.53;;;12.48;88.90
51603;BME280;37954;51.980;5.850;2022-10-26T06:10:38;100985.63;;;12.48;88.96
51603;BME280;37954;51.980;5.850;2022-10-26T06:14:50;100983.97;;;12.47;88.80
51603;BME280;37954;51.980;5.850;2022-10-26T06:19:12;100989.97;;;12.49;88.93
51603;BME280;37954;51.980;5.850;2022-10-26T06:23:52;100981.16;;;12.42;88.56
51603;BME280;37954;51.980;5.850;2022-10-26T06:28:38;100990.31;;;12.41;88.53
51603;BME280;37954;51.980;5.850;2022-10-26T06:32:51;100995.91;;;12.39;88.66
51603;BME280;37954;51.980;5.850;2022-10-26T06:37:22;100987.00;;;12.39;88.58
51603;BME280;37954;51.980;5.850;2022-10-26T06:41:35;100976.91;;;12.34;88.56
51603;BME280;37954;51.980;5.850;2022-10-26T06:45:53;100989.09;;;12.37;88.62
51603;BME280;37954;51.980;5.850;2022-10-26T06:50:28;100987.50;;;12.47;88.65
51603;BME280;37954;51.980;5.850;2022-10-26T06:54:48;100985.06;;;12.46;88.70
51603;BME280;37954;51.980;5.850;2022-10-26T06:59:07;100978.13;;;12.50;88.81
51603;BME280;37954;51.980;5.850;2022-10-26T07:03:19;100982.16;;;12.59;88.65
51603;BME280;37954;51.980;5.850;2022-10-26T07:07:30;100986.97;;;12.69;88.78
51603;BME280;37954;51.980;5.850;2022-10-26T07:11:42;100981.84;;;12.79;88.83
51603;BME280;37954;51.980;5.850;2022-10-26T07:15:53;100983.56;;;13.27;89.34
51603;BME280;37954;51.980;5.850;2022-10-26T07:20:05;100990.94;;;14.63;89.82
51603;BME280;37954;51.980;5.850;2022-10-26T07:24:17;100996.94;;;16.14;88.59
51603;BME280;37954;51.980;5.850;2022-10-26T07:28:28;100996.78;;;17.44;84.06
51603;BME280;37954;51.980;5.850;2022-10-26T07:32:40;101007.25;;;17.67;77.77
51603;BME280;37954;51.980;5.850;2022-10-26T07:36:51;101011.09;;;17.34;76.55
51603;BME280;37954;51.980;5.850;2022-10-26T07:41:04;101001.16;;;16.76;76.68
51603;BME280;37954;51.980;5.850;2022-10-26T07:45:17;100991.41;;;16.26;76.53
51603;BME280;37954;51.980;5.850;2022-10-26T07:49:29;100994.31;;;15.97;77.25
51603;BME280;37954;51.980;5.850;2022-10-26T07:53:40;101001.88;;;16.17;77.89
51603;BME280;37954;51.980;5.850;2022-10-26T07:57:53;101012.94;;;16.91;77.64
51603;BME280;37954;51.980;5.850;2022-10-26T08:02:05;101010.53;;;17.32;75.77
51603;BME280;37954;51.980;5.850;2022-10-26T08:06:17;101017.16;;;17.93;74.84
51603;BME280;37954;51.980;5.850;2022-10-26T08:10:28;101020.41;;;19.13;73.08
51603;BME280;37954;51.980;5.850;2022-10-26T08:14:40;101005.91;;;20.33;69.55
51603;BME280;37954;51.980;5.850;2022-10-26T08:18:51;101022.19;;;21.56;66.98
51603;BME280;37954;51.980;5.850;2022-10-26T08:23:03;101020.91;;;22.19;63.85
51603;BME280;37954;51.980;5.850;2022-10-26T08:27:16;101035.28;;;22.86;60.63
51603;BME280;37954;51.980;5.850;2022-10-26T08:31:29;101060.44;;;23.72;58.79
51603;BME280;37954;51.980;5.850;2022-10-26T08:35:41;101041.59;;;24.48;57.45
51603;BME280;37954;51.980;5.850;2022-10-26T08:39:52;101062.03;;;25.36;54.19
51603;BME280;37954;51.980;5.850;2022-10-26T08:44:23;101067.25;;;25.69;53.27
51603;BME280;37954;51.980;5.850;2022-10-26T08:48:39;101061.41;;;26.10;51.45
51603;BME280;37954;51.980;5.850;2022-10-26T08:53:16;101056.00;;;26.44;49.98
51603;BME280;37954;51.980;5.850;2022-10-26T08:57:37;101061.09;;;26.94;48.66
51603;BME280;37954;51.980;5.850;2022-10-26T09:01:49;101058.25;;;27.37;47.38
51603;BME280;37954;51.980;5.850;2022-10-26T09:06:29;101068.03;;;27.81;46.51
51603;BME280;37954;51.980;5.850;2022-10-26T09:10:55;101080.88;;;28.15;44.91
51603;BME280;37954;51.980;5.850;2022-10-26T09:15:31;101081.94;;;28.02;44.05
51603;BME280;37954;51.980;5.850;2022-10-26T09:24:38;101089.09;;;28.32;43.19
51603;BME280;37954;51.980;5.850;2022-10-26T09:28:52;101087.56;;;28.44;42.82
51603;BME280;37954;51.980;5.850;2022-10-26T09:33:13;101079.66;;;28.33;42.06
51603;BME280;37954;51.980;5.850;2022-10-26T09:37:37;101068.19;;;27.85;42.78
51603;BME280;37954;51.980;5.850;2022-10-26T09:41:55;101058.28;;;28.13;42.93
51603;BME280;37954;51.980;5.850;2022-10-26T09:46:14;101072.44;;;28.41;42.49
51603;BME280;37954;51.980;5.850;2022-10-26T09:50:33;101086.91;;;28.67;42.50
51603;BME280;37954;51.980;5.850;2022-10-26T09:54:45;101072.84;;;28.81;41.58
51603;BME280;37954;51.980;5.850;2022-10-26T09:59:00;101081.38;;;28.67;41.68
51603;BME280;37954;51.980;5.850;2022-10-26T10:03:26;101103.44;;;28.26;41.48
51603;BME280;37954;51.980;5.850;2022-10-26T10:07:38;101101.59;;;27.36;42.54
51603;BME280;37954;51.980;5.850;2022-10-26T10:11:55;101116.50;;;26.75;43.43
51603;BME280;37954;51.980;5.850;2022-10-26T10:16:20;101141.63;;;26.56;44.84
51603;BME280;37954;51.980;5.850;2022-10-26T10:20:33;101148.38;;;26.42;45.53
51603;BME280;37954;51.980;5.850;2022-10-26T10:24:55;101139.22;;;26.24;45.79
51603;BME280;37954;51.980;5.850;2022-10-26T10:29:14;101140.50;;;26.18;45.71
51603;BME280;37954;51.980;5.850;2022-10-26T10:33:33;101145.69;;;26.19;46.35
51603;BME280;37954;51.980;5.850;2022-10-26T10:37:45;101153.72;;;26.29;46.47
51603;BME280;37954;51.980;5.850;2022-10-26T10:41:57;101134.91;;;26.31;46.53
51603;BME280;37954;51.980;5.850;2022-10-26T10:46:08;101157.78;;;26.41;46.75
51603;BME280;37954;51.980;5.850;2022-10-26T10:50:20;101165.28;;;26.49;46.89
51603;BME280;37954;51.980;5.850;2022-10-26T10:54:34;101161.53;;;26.45;46.87
51603;BME280;37954;51.980;5.850;2022-10-26T10:59:14;101166.38;;;26.08;47.24
51603;BME280;37954;51.980;5.850;2022-10-26T11:12:29;101179.06;;;25.87;48.39
51603;BME280;37954;51.980;5.850;2022-10-26T11:16:45;101192.75;;;26.00;48.88
51603;BME280;37954;51.980;5.850;2022-10-26T11:21:27;101196.69;;;26.39;48.37
51603;BME280;37954;51.980;5.850;2022-10-26T11:25:52;101201.41;;;26.47;48.07
51603;BME280;37954;51.980;5.850;2022-10-26T11:30:12;101205.44;;;26.41;48.01
51603;BME280;37954;51.980;5.850;2022-10-26T11:34:43;101203.94;;;26.35;47.84
51603;BME280;37954;51.980;5.850;2022-10-26T11:39:10;101200.75;;;26.50;47.84
51603;BME280;37954;51.980;5.850;2022-10-26T11:43:37;101206.97;;;26.25;48.04
51603;BME280;37954;51.980;5.850;2022-10-26T11:48:03;101205.47;;;25.43;48.97
51603;BME280;37954;51.980;5.850;2022-10-26T11:52:22;101228.06;;;24.90;50.39
51603;BME280;37954;51.980;5.850;2022-10-26T11:56:43;101230.03;;;24.16;51.93
51603;BME280;37954;51.980;5.850;2022-10-26T12:01:00;101230.09;;;23.65;53.31
51603;BME280;37954;51.980;5.850;2022-10-26T12:09:33;101231.94;;;23.51;55.38
51603;BME280;37954;51.980;5.850;2022-10-26T12:13:55;101222.03;;;23.55;55.10
51603;BME280;37954;51.980;5.850;2022-10-26T12:22:28;101225.38;;;23.52;55.72
51603;BME280;37954;51.980;5.850;2022-10-26T12:26:52;101217.50;;;23.64;56.15
51603;BME280;37954;51.980;5.850;2022-10-26T12:35:43;101241.53;;;23.72;56.13
51603;BME280;37954;51.980;5.850;2022-10-26T12:48:55;101250.63;;;23.86;55.97
51603;BME280;37954;51.980;5.850;2022-10-26T12:53:11;101254.84;;;23.79;56.02
51603;BME280;37954;51.980;5.850;2022-10-26T12:57:33;101270.06;;;23.71;56.03
51603;BME280;37954;51.980;5.850;2022-10-26T13:02:09;101267.25;;;23.57;55.93
51603;BME280;37954;51.980;5.850;2022-10-26T13:07:07;101279.31;;;23.56;56.26
51603;BME280;37954;51.980;5.850;2022-10-26T13:11:35;101278.09;;;23.25;56.68
51603;BME280;37954;51.980;5.850;2022-10-26T13:15:54;101282.53;;;23.02;57.04
51603;BME280;37954;51.980;5.850;2022-10-26T13:20:15;101284.13;;;22.84;57.45
51603;BME280;37954;51.980;5.850;2022-10-26T13:24:30;101280.91;;;22.72;57.49
51603;BME280;37954;51.980;5.850;2022-10-26T13:33:02;101283.88;;;22.52;58.15
51603;BME280;37954;51.980;5.850;2022-10-26T13:37:23;101277.28;;;22.29;58.71
51603;BME280;37954;51.980;5.850;2022-10-26T13:41:39;101269.75;;;22.16;58.88
51603;BME280;37954;51.980;5.850;2022-10-26T13:45:55;101267.59;;;22.08;59.23
51603;BME280;37954;51.980;5.850;2022-10-26T13:50:15;101272.66;;;21.91;59.74
51603;BME280;37954;51.980;5.850;2022-10-26T13:55:02;101291.19;;;21.99;60.68
51603;BME280;37954;51.980;5.850;2022-10-26T13:59:08;101290.84;;;22.10;60.26
51603;BME280;37954;51.980;5.850;2022-10-26T14:03:21;101281.84;;;22.05;60.31
51603;BME280;37954;51.980;5.850;2022-10-26T14:07:40;101277.22;;;22.00;60.39
51603;BME280;37954;51.980;5.850;2022-10-26T14:11:57;101287.97;;;21.92;60.38
51603;BME280;37954;51.980;5.850;2022-10-26T14:16:13;101295.19;;;21.77;60.81
51603;BME280;37954;51.980;5.850;2022-10-26T14:20:29;101298.56;;;21.64;60.90
51603;BME280;37954;51.980;5.850;2022-10-26T14:24:50;101304.06;;;21.54;61.57
51603;BME280;37954;51.980;5.850;2022-10-26T14:29:01;101304.09;;;21.49;61.65
51603;BME280;37954;51.980;5.850;2022-10-26T14:33:26;101311.00;;;21.41;61.92
51603;BME280;37954;51.980;5.850;2022-10-26T14:37:59;101312.66;;;21.32;62.41
51603;BME280;37954;51.980;5.850;2022-10-26T14:42:26;101325.50;;;21.32;62.41
51603;BME280;37954;51.980;5.850;2022-10-26T14:46:41;101344.41;;;21.28;62.57
51603;BME280;37954;51.980;5.850;2022-10-26T14:51:08;101347.41;;;21.27;62.86
51603;BME280;37954;51.980;5.850;2022-10-26T14:55:21;101355.91;;;21.25;63.32
51603;BME280;37954;51.980;5.850;2022-10-26T14:59:34;101357.25;;;21.28;63.24
51603;BME280;37954;51.980;5.850;2022-10-26T15:03:46;101354.47;;;21.33;63.48
51603;BME280;37954;51.980;5.850;2022-10-26T15:07:59;101361.09;;;21.27;63.61
51603;BME280;37954;51.980;5.850;2022-10-26T15:12:33;101371.47;;;21.30;63.69
51603;BME280;37954;51.980;5.850;2022-10-26T15:16:53;101377.22;;;21.23;63.94
51603;BME280;37954;51.980;5.850;2022-10-26T15:21:21;101384.59;;;21.12;64.06
51603;BME280;37954;51.980;5.850;2022-10-26T15:25:33;101391.72;;;21.03;64.20
51603;BME280;37954;51.980;5.850;2022-10-26T15:29:47;101396.94;;;20.95;64.48
51603;BME280;37954;51.980;5.850;2022-10-26T15:38:11;101399.69;;;20.64;64.64
51603;BME280;37954;51.980;5.850;2022-10-26T15:42:22;101398.91;;;20.54;65.14
51603;BME280;37954;51.980;5.850;2022-10-26T15:46:35;101413.38;;;20.54;65.64
51603;BME280;37954;51.980;5.850;2022-10-26T15:50:48;101396.97;;;20.49;65.66
51603;BME280;37954;51.980;5.850;2022-10-26T15:55:00;101404.34;;;20.54;65.68
51603;BME280;37954;51.980;5.850;2022-10-26T15:59:18;101408.72;;;20.49;65.82
51603;BME280;37954;51.980;5.850;2022-10-26T16:03:30;101415.00;;;20.45;65.94
51603;BME280;37954;51.980;5.850;2022-10-26T16:07:43;101411.66;;;20.28;66.17
51603;BME280;37954;51.980;5.850;2022-10-26T16:11:55;101422.31;;;20.24;66.31
51603;BME280;37954;51.980;5.850;2022-10-26T16:16:12;101434.84;;;20.15;66.47
51603;BME280;37954;51.980;5.850;2022-10-26T16:20:24;101441.91;;;20.01;66.66
51603;BME280;37954;51.980;5.850;2022-10-26T16:24:37;101453.63;;;19.91;66.98
51603;BME280;37954;51.980;5.850;2022-10-26T16:28:50;101458.22;;;19.80;66.89
51603;BME280;37954;51.980;5.850;2022-10-26T16:33:02;101463.59;;;19.65;67.08
51603;BME280;37954;51.980;5.850;2022-10-26T16:37:13;101474.66;;;19.48;67.33
51603;BME280;37954;51.980;5.850;2022-10-26T16:41:25;101474.88;;;19.37;67.49
51603;BME280;37954;51.980;5.850;2022-10-26T16:45:38;101476.75;;;19.31;68.04
51603;BME280;37954;51.980;5.850;2022-10-26T16:49:50;101484.41;;;19.34;68.15
51603;BME280;37954;51.980;5.850;2022-10-26T16:54:01;101475.41;;;19.34;68.41
51603;BME280;37954;51.980;5.850;2022-10-26T16:58:13;101472.72;;;19.39;68.68
51603;BME280;37954;51.980;5.850;2022-10-26T17:02:24;101478.66;;;19.31;68.62
51603;BME280;37954;51.980;5.850;2022-10-26T17:06:36;101494.59;;;19.12;68.50
51603;BME280;37954;51.980;5.850;2022-10-26T17:10:47;101478.00;;;18.76;68.69
51603;BME280;37954;51.980;5.850;2022-10-26T17:14:59;101512.56;;;18.76;69.26
51603;BME280;37954;51.980;5.850;2022-10-26T17:19:11;101507.44;;;18.58;69.50
51603;BME280;37954;51.980;5.850;2022-10-26T17:23:23;101519.31;;;18.47;69.80
51603;BME280;37954;51.980;5.850;2022-10-26T17:27:35;101511.31;;;18.35;70.24
51603;BME280;37954;51.980;5.850;2022-10-26T17:31:46;101514.22;;;18.28;70.28
51603;BME280;37954;51.980;5.850;2022-10-26T17:35:58;101522.22;;;18.13;70.69
51603;BME280;37954;51.980;5.850;2022-10-26T17:40:10;101540.38;;;18.07;70.76
51603;BME280;37954;51.980;5.850;2022-10-26T17:44:21;101550.56;;;17.95;70.82
51603;BME280;37954;51.980;5.850;2022-10-26T17:48:33;101562.69;;;17.88;71.08
51603;BME280;37954;51.980;5.850;2022-10-26T17:52:45;101560.66;;;17.78;71.34
51603;BME280;37954;51.980;5.850;2022-10-26T17:56:56;101572.53;;;17.72;71.96
51603;BME280;37954;51.980;5.850;2022-10-26T18:01:10;101577.88;;;17.67;72.00
51603;BME280;37954;51.980;5.850;2022-10-26T18:05:22;101580.19;;;17.58;72.17
51603;BME280;37954;51.980;5.850;2022-10-26T18:09:33;101589.06;;;17.54;72.34
51603;BME280;37954;51.980;5.850;2022-10-26T18:13:46;101595.00;;;17.51;72.53
51603;BME280;37954;51.980;5.850;2022-10-26T18:17:57;101603.81;;;17.41;72.78
51603;BME280;37954;51.980;5.850;2022-10-26T18:22:11;101615.06;;;17.33;73.09
51603;BME280;37954;51.980;5.850;2022-10-26T18:26:24;101614.81;;;17.18;73.14
51603;BME280;37954;51.980;5.850;2022-10-26T18:30:36;101615.81;;;17.12;73.31
51603;BME280;37954;51.980;5.850;2022-10-26T18:34:48;101633.91;;;17.06;73.64
51603;BME280;37954;51.980;5.850;2022-10-26T18:39:00;101623.38;;;16.93;73.71
51603;BME280;37954;51.980;5.850;2022-10-26T18:43:12;101630.34;;;16.89;74.06
51603;BME280;37954;51.980;5.850;2022-10-26T18:47:23;101638.84;;;16.81;74.58
51603;BME280;37954;51.980;5.850;2022-10-26T18:51:35;101654.59;;;16.79;74.79
51603;BME280;37954;51.980;5.850;2022-10-26T18:55:46;101634.91;;;16.72;74.92
51603;BME280;37954;51.980;5.850;2022-10-26T18:59:58;101646.56;;;16.72;75.19
51603;BME280;37954;51.980;5.850;2022-10-26T19:04:10;101644.09;;;16.70;75.10
51603;BME280;37954;51.980;5.850;2022-10-26T19:08:21;101659.22;;;16.66;75.17
51603;BME280;37954;51.980;5.850;2022-10-26T19:12:38;101662.88;;;16.60;75.38
51603;BME280;37954;51.980;5.850;2022-10-26T19:16:50;101661.94;;;16.55;75.37
51603;BME280;37954;51.980;5.850;2022-10-26T19:21:06;101681.97;;;16.54;75.50
51603;BME280;37954;51.980;5.850;2022-10-26T19:25:18;101673.66;;;16.44;75.48
51603;BME280;37954;51.980;5.850;2022-10-26T19:29:30;101670.69;;;16.33;75.64
51603;BME280;37954;51.980;5.850;2022-10-26T19:33:42;101674.13;;;16.29;75.89
51603;BME280;37954;51.980;5.850;2022-10-26T19:37:53;101669.31;;;16.19;75.99
51603;BME280;37954;51.980;5.850;2022-10-26T19:42:05;101663.31;;;16.17;76.07
51603;BME280;37954;51.980;5.850;2022-10-26T19:46:19;101671.91;;;16.14;76.40
51603;BME280;37954;51.980;5.850;2022-10-26T19:50:34;101689.72;;;16.10;76.80
51603;BME280;37954;51.980;5.850;2022-10-26T19:54:45;101680.78;;;16.10;77.26
51603;BME280;37954;51.980;5.850;2022-10-26T19:58:57;101695.63;;;16.07;77.28
51603;BME280;37954;51.980;5.850;2022-10-26T20:03:09;101696.78;;;15.99;77.13
51603;BME280;37954;51.980;5.850;2022-10-26T20:07:21;101707.16;;;15.91;77.38
51603;BME280;37954;51.980;5.850;2022-10-26T20:11:33;101713.41;;;15.91;77.28
51603;BME280;37954;51.980;5.850;2022-10-26T20:15:49;101719.38;;;15.93;77.42
51603;BME280;37954;51.980;5.850;2022-10-26T20:20:01;101712.44;;;15.86;77.62
51603;BME280;37954;51.980;5.850;2022-10-26T20:24:12;101718.09;;;15.84;77.85
51603;BME280;37954;51.980;5.850;2022-10-26T20:28:24;101737.66;;;15.86;77.93
51603;BME280;37954;51.980;5.850;2022-10-26T20:32:36;101729.88;;;15.78;77.87
51603;BME280;37954;51.980;5.850;2022-10-26T20:36:47;101735.78;;;15.75;78.24
51603;BME280;37954;51.980;5.850;2022-10-26T20:40:59;101739.03;;;15.65;78.07
51603;BME280;37954;51.980;5.850;2022-10-26T20:45:20;101747.38;;;15.64;78.17
51603;BME280;37954;51.980;5.850;2022-10-26T20:49:34;101755.38;;;15.59;78.51
51603;BME280;37954;51.980;5.850;2022-10-26T20:53:53;101751.56;;;15.48;78.53
51603;BME280;37954;51.980;5.850;2022-10-26T20:58:17;101754.13;;;15.43;78.47
51603;BME280;37954;51.980;5.850;2022-10-26T21:02:29;101758.22;;;15.34;78.55
51603;BME280;37954;51.980;5.850;2022-10-26T21:06:41;101769.13;;;15.27;78.65
51603;BME280;37954;51.980;5.850;2022-10-26T21:10:53;101763.22;;;15.19;78.84
51603;BME280;37954;51.980;5.850;2022-10-26T21:15:05;101761.19;;;15.14;78.83
51603;BME280;37954;51.980;5.850;2022-10-26T21:19:17;101768.34;;;15.09;78.96
51603;BME280;37954;51.980;5.850;2022-10-26T21:23:34;101751.00;;;14.98;79.18
51603;BME280;37954;51.980;5.850;2022-10-26T21:27:46;101770.31;;;15.02;79.26
51603;BME280;37954;51.980;5.850;2022-10-26T21:31:58;101767.53;;;14.90;79.34
51603;BME280;37954;51.980;5.850;2022-10-26T21:36:10;101778.00;;;14.86;79.46
51603;BME280;37954;51.980;5.850;2022-10-26T21:40:22;101788.34;;;14.89;79.47
51603;BME280;37954;51.980;5.850;2022-10-26T21:44:34;101772.06;;;14.78;79.63
51603;BME280;37954;51.980;5.850;2022-10-26T21:48:53;101778.13;;;14.73;79.81
51603;BME280;37954;51.980;5.850;2022-10-26T21:53:04;101769.88;;;14.68;79.82
51603;BME280;37954;51.980;5.850;2022-10-26T21:57:16;101775.28;;;14.68;79.95
51603;BME280;37954;51.980;5.850;2022-10-26T22:01:27;101764.03;;;14.53;80.43
51603;BME280;37954;51.980;5.850;2022-10-26T22:05:39;101778.06;;;14.61;80.45
51603;BME280;37954;51.980;5.850;2022-10-26T22:09:56;101780.81;;;14.55;80.50
51603;BME280;37954;51.980;5.850;2022-10-26T22:14:21;101782.34;;;14.51;80.60
51603;BME280;37954;51.980;5.850;2022-10-26T22:18:34;101789.25;;;14.47;80.55
51603;BME280;37954;51.980;5.850;2022-10-26T22:22:46;101783.66;;;14.42;80.59
51603;BME280;37954;51.980;5.850;2022-10-26T22:26:57;101793.84;;;14.40;80.98
51603;BME280;37954;51.980;5.850;2022-10-26T22:31:16;101799.66;;;14.43;81.03
51603;BME280;37954;51.980;5.850;2022-10-26T22:35:28;101769.03;;;14.24;81.04
51603;BME280;37954;51.980;5.850;2022-10-26T22:39:40;101766.50;;;14.29;81.45
51603;BME280;37954;51.980;5.850;2022-10-26T22:43:52;101775.28;;;14.25;81.64
51603;BME280;37954;51.980;5.850;2022-10-26T22:48:04;101779.41;;;14.27;81.43
51603;BME280;37954;51.980;5.850;2022-10-26T22:52:15;101788.78;;;14.25;81.91
51603;BME280;37954;51.980;5.850;2022-10-26T22:56:28;101780.28;;;14.21;81.92
51603;BME280;37954;51.980;5.850;2022-10-26T23:00:40;101784.28;;;14.19;81.55
51603;BME280;37954;51.980;5.850;2022-10-26T23:04:51;101791.56;;;14.18;82.05
51603;BME280;37954;51.980;5.850;2022-10-26T23:09:04;101807.72;;;14.25;82.01
51603;BME280;37954;51.980;5.850;2022-10-26T23:13:15;101780.75;;;14.18;82.47
51603;BME280;37954;51.980;5.850;2022-10-26T23:17:27;101791.88;;;14.28;82.95
51603;BME280;37954;51.980;5.850;2022-10-26T23:21:39;101797.72;;;14.25;82.64
51603;BME280;37954;51.980;5.850;2022-10-26T23:25:50;101787.34;;;14.22;82.93
51603;BME280;37954;51.980;5.850;2022-10-26T23:30:02;101811.75;;;14.41;83.10